Aviation Digital Data Service (ADDS)

Output produced by METARs form (1321 UTC 21 August 2019)
found at http://www.aviationweather.gov/metar/data/
 
Forecast for: HLLM (MITIGA , LY)
Text: TAF HLLM 211100Z 2112/2212 06012G22KT 8000 NSC
Forecast period: 1200 UTC 21 August 2019 to 0300 UTC 22 August 2019
Forecast type: FROM: standard forecast or significant change
Winds: from the ENE (60 degrees) at 14 MPH (12 knots; 6.2 m/s)
gusting to 25 MPH (22 knots; 11.3 m/s)
Visibility: 5 miles (8 km)
Ceiling: unknown
Clouds: missing
Weather: no significant weather forecast for this period
Text: BECMG 2203/2205 12012KT
Forecast period: 0300 to 1200 UTC 22 August 2019
Forecast type: BECOMING: Conditions expected to become as follows by 0500 UTC 22 August 2019
Winds: from the ESE (120 degrees) at 14 MPH (12 knots; 6.2 m/s)
Visibility: 5 miles (8 km)
Ceiling: unknown
Clouds: missing
Weather: no significant weather forecast for this period